Time;durP1;ratioP1;P1;durP2;ratioP2;P2;SDS_P1;SDS_P2;PMS_P1;PMS_P2;Temp;Humidity;BMP_temperature;BMP_pressure;BME280_temperature;BME280_humidity;BME280_pressure;Samples;Min_cycle;Max_cycle;Signal;HPM_P1;HPM_P2
2023/09/21 00:01:10;;;;;;;6.97;2.22;;;;;;;20.02;76.13;97888.34;5093213;28;20016;-44
2023/09/21 00:03:36;;;;;;;6.78;1.85;;;;;;;20.01;76.16;97880.66;5093009;28;20121;-44
2023/09/21 00:06:03;;;;;;;3.85;1.33;;;;;;;20.01;76.27;97883.31;5093698;28;20044;-44
2023/09/21 00:08:33;;;;;;;5.82;1.70;;;;;;;19.92;76.85;97881.25;5091794;28;20036;-44
2023/09/21 00:10:59;;;;;;;4.70;1.58;;;;;;;20.01;76.65;97878.78;5093337;28;20028;-44
2023/09/21 00:13:32;;;;;;;2.42;1.30;;;;;;;20.11;75.57;97880.53;5091982;28;20058;-45
2023/09/21 00:16:01;;;;;;;5.68;1.67;;;;;;;20.06;76.06;97869.91;5092915;28;20032;-44
2023/09/21 00:18:27;;;;;;;9.07;2.10;;;;;;;20.11;76.07;97868.00;5092866;28;20085;-44
2023/09/21 00:20:57;;;;;;;9.18;2.30;;;;;;;20.31;76.12;97860.88;5091629;28;20016;-44
2023/09/21 00:23:26;;;;;;;11.80;2.35;;;;;;;20.47;75.35;97851.63;5092938;28;20075;-44
2023/09/21 00:26:00;;;;;;;7.88;2.47;;;;;;;20.67;74.26;97858.59;5092724;28;20016;-44
2023/09/21 00:28:27;;;;;;;17.33;3.35;;;;;;;20.79;73.46;97852.84;5092748;28;20028;-44
2023/09/21 00:30:54;;;;;;;13.40;2.72;;;;;;;20.93;72.94;97851.06;5091644;28;20111;-44
2023/09/21 00:33:20;;;;;;;4.97;1.80;;;;;;;21.21;72.71;97843.19;5092640;28;20020;-44
2023/09/21 00:35:46;;;;;;;2.22;1.10;;;;;;;21.31;70.18;97847.56;5092575;28;20393;-44
2023/09/21 00:38:15;;;;;;;7.88;2.25;;;;;;;21.10;71.09;97836.41;5091260;28;20032;-44
2023/09/21 00:40:44;;;;;;;12.13;6.13;;;;;;;21.06;70.85;97827.41;5091814;28;20090;-44
2023/09/21 00:43:20;;;;;;;10.73;2.97;;;;;;;21.11;71.59;97825.44;5092269;28;20164;-44
2023/09/21 00:45:53;;;;;;;10.82;1.80;;;;;;;21.17;71.13;97820.00;5091107;28;20039;-44
2023/09/21 00:48:33;;;;;;;13.13;4.07;;;;;;;21.22;70.62;97818.06;5092437;28;20024;-44
2023/09/21 00:50:59;;;;;;;6.32;4.13;;;;;;;21.19;70.04;97809.84;5092310;28;20039;-44
2023/09/21 00:53:29;;;;;;;4.55;1.65;;;;;;;21.12;70.54;97816.34;5092252;28;20014;-44
2023/09/21 00:55:57;;;;;;;8.90;1.75;;;;;;;21.10;70.69;97815.06;5092211;28;20020;-44
2023/09/21 00:58:25;;;;;;;6.55;1.65;;;;;;;21.10;69.99;97815.06;5090901;28;20101;-44
2023/09/21 01:00:54;;;;;;;4.10;1.60;;;;;;;20.98;70.14;97818.16;5092149;28;20027;-44
2023/09/21 01:03:20;;;;;;;3.85;1.30;;;;;;;20.87;70.50;97811.41;5091739;28;20409;-44
2023/09/21 01:05:48;;;;;;;7.00;1.67;;;;;;;20.77;70.93;97820.34;5092100;28;20512;-44
2023/09/21 01:08:18;;;;;;;5.68;1.38;;;;;;;20.65;70.88;97810.09;5091158;28;20059;-44
2023/09/21 01:10:49;;;;;;;6.38;1.42;;;;;;;20.52;71.30;97810.78;5092060;28;20047;-44
2023/09/21 01:13:18;;;;;;;4.65;1.20;;;;;;;20.52;71.70;97810.78;5092119;28;20169;-44
2023/09/21 01:15:46;;;;;;;8.35;1.55;;;;;;;20.54;71.52;97808.59;5091988;28;20035;-44
2023/09/21 01:18:16;;;;;;;6.40;2.45;;;;;;;20.63;72.25;97804.25;5090817;28;20044;-44
2023/09/21 01:20:43;;;;;;;2.42;1.20;;;;;;;20.71;71.09;97800.16;5091801;28;20031;-44
2023/09/21 01:23:19;;;;;;;6.95;1.77;;;;;;;20.61;71.17;97789.66;5092087;28;20032;-44
2023/09/21 01:25:49;;;;;;;6.13;1.25;;;;;;;20.65;71.57;97788.78;5091872;28;20463;-44
2023/09/21 01:28:19;;;;;;;6.70;4.00;;;;;;;20.71;71.06;97776.16;5091824;28;20024;-44
2023/09/21 01:30:46;;;;;;;5.55;2.00;;;;;;;20.65;70.79;97780.00;5090460;28;20027;-44
2023/09/21 01:33:12;;;;;;;7.20;1.52;;;;;;;20.59;70.79;97778.47;5091825;28;20134;-44
2023/09/21 01:35:38;;;;;;;6.28;1.63;;;;;;;20.49;70.89;97774.03;5090584;28;20032;-44
2023/09/21 01:38:08;;;;;;;3.72;1.80;;;;;;;20.38;71.32;97770.69;5090426;28;20028;-44
2023/09/21 01:40:35;;;;;;;6.40;1.90;;;;;;;20.34;71.72;97759.84;5091689;28;20034;-44
2023/09/21 01:43:14;;;;;;;3.97;1.08;;;;;;;20.33;71.54;97757.47;5090452;28;20081;-44
2023/09/21 01:45:42;;;;;;;3.13;1.10;;;;;;;20.30;71.63;97756.16;5091634;28;20074;-44
2023/09/21 01:48:09;;;;;;;3.50;1.38;;;;;;;20.24;71.78;97743.19;5091709;28;20020;-44
2023/09/21 01:50:50;;;;;;;2.25;1.02;;;;;;;20.14;72.73;97742.25;5090351;28;20028;-44
2023/09/21 01:53:20;;;;;;;5.15;1.55;;;;;;;20.20;72.61;97742.16;5094326;28;20374;-44
2023/09/21 01:55:47;;;;;;;2.03;1.08;;;;;;;20.21;72.47;97739.22;5095719;28;20097;-44
2023/09/21 01:58:23;;;;;;;5.80;1.92;;;;;;;20.19;72.42;97733.38;5095656;28;20024;-44
2023/09/21 02:00:49;;;;;;;5.70;1.20;;;;;;;20.22;72.59;97740.81;5095563;28;20043;-44
2023/09/21 02:03:18;;;;;;;5.07;1.05;;;;;;;20.27;72.36;97729.28;5094108;28;20040;-44
2023/09/21 02:05:46;;;;;;;4.80;1.13;;;;;;;20.37;72.22;97723.03;5095437;28;20541;-44
2023/09/21 02:08:13;;;;;;;4.53;1.10;;;;;;;20.51;71.76;97721.25;5095444;28;20058;-44
2023/09/21 02:10:40;;;;;;;5.32;1.38;;;;;;;20.77;70.67;97718.22;5095404;28;20020;-44
2023/09/21 02:13:07;;;;;;;5.93;1.60;;;;;;;20.71;70.21;97712.19;5095301;28;20028;-44
2023/09/21 02:15:37;;;;;;;5.85;1.10;;;;;;;20.75;70.15;97713.19;5095198;28;20028;-44
2023/09/21 02:18:04;;;;;;;3.15;1.30;;;;;;;20.73;70.10;97710.78;5095529;28;20393;-44
2023/09/21 02:20:31;;;;;;;7.38;1.25;;;;;;;20.64;70.09;97712.53;5093890;28;20073;-44
2023/09/21 02:22:59;;;;;;;10.73;2.83;;;;;;;20.56;70.29;97707.81;5095202;28;20031;-44
2023/09/21 02:25:30;;;;;;;6.03;1.85;;;;;;;20.70;71.29;97705.25;5095080;28;20021;-44
2023/09/21 02:27:56;;;;;;;3.38;1.20;;;;;;;20.96;70.22;97694.97;5095164;28;20032;-44
2023/09/21 02:30:22;;;;;;;8.73;1.92;;;;;;;20.88;69.27;97682.28;5095056;28;20146;-44
2023/09/21 02:32:49;;;;;;;8.40;1.67;;;;;;;20.75;69.15;97679.31;5094999;28;20024;-44
2023/09/21 02:35:24;;;;;;;4.90;1.25;;;;;;;20.57;69.61;97681.97;5093620;28;20032;-44
2023/09/21 02:37:51;;;;;;;7.28;1.40;;;;;;;20.40;70.23;97672.59;5094993;28;20467;-44
2023/09/21 02:40:19;;;;;;;5.85;1.15;;;;;;;20.33;70.45;97669.53;5093495;28;20452;-44
2023/09/21 02:42:48;;;;;;;7.35;4.40;;;;;;;20.24;70.71;97666.72;5094735;28;20032;-44
2023/09/21 02:45:15;;;;;;;3.47;1.60;;;;;;;20.09;71.10;97665.03;5094663;28;20366;-44
2023/09/21 02:47:44;;;;;;;4.50;1.45;;;;;;;20.00;71.76;97661.47;5093392;28;20436;-44
2023/09/21 02:50:14;;;;;;;2.40;1.17;;;;;;;19.86;71.92;97656.03;5094597;28;20104;-44
2023/09/21 02:53:04;;;;;;;4.00;1.00;;;;;;;19.85;72.45;97659.00;5093686;28;20054;-44
2023/09/21 02:55:30;;;;;;;6.00;1.67;;;;;;;19.82;72.38;97656.88;5094562;28;20107;-44
2023/09/21 02:58:06;;;;;;;2.55;1.30;;;;;;;19.71;72.93;97653.56;5094485;28;20047;-44
2023/09/21 03:00:39;;;;;;;3.20;0.90;;;;;;;19.70;73.01;97662.63;5094352;28;20020;-44
2023/09/21 03:03:10;;;;;;;12.73;3.05;;;;;;;19.67;73.40;97655.97;5092929;28;20050;-44
2023/09/21 03:05:38;;;;;;;6.90;1.80;;;;;;;19.83;73.52;97659.25;5093267;28;20093;-44
2023/09/21 03:08:13;;;;;;;3.95;1.35;;;;;;;20.13;72.98;97650.06;5094322;28;20398;-44
2023/09/21 03:10:39;;;;;;;5.03;1.42;;;;;;;20.36;72.09;97650.28;5094270;28;20032;-44
2023/09/21 03:13:05;;;;;;;3.75;1.10;;;;;;;20.36;70.81;97639.63;5094159;28;20074;-44
2023/09/21 03:15:33;;;;;;;4.65;1.00;;;;;;;20.22;70.42;97633.44;5094130;28;20032;-44
2023/09/21 03:17:58;;;;;;;3.00;1.58;;;;;;;20.10;71.43;97636.53;5094072;28;20518;-44
2023/09/21 03:20:33;;;;;;;4.72;1.10;;;;;;;20.27;71.30;97628.84;5093998;28;20024;-44
2023/09/21 03:23:05;;;;;;;12.80;1.85;;;;;;;20.29;70.43;97634.66;5094113;28;20031;-44
2023/09/21 03:25:40;;;;;;;6.20;1.45;;;;;;;20.29;70.57;97626.66;5093908;28;20071;-44
2023/09/21 03:28:15;;;;;;;;;;;;;;;20.38;70.59;97624.13;5094485;28;20036;-44
2023/09/21 03:30:45;;;;;;;22.05;7.45;;;;;;;20.64;70.98;97626.44;5092919;28;19912;-44
2023/09/21 03:33:12;;;;;;;3.08;1.27;;;;;;;20.95;68.27;97632.03;5093815;28;20107;-44
2023/09/21 03:35:38;;;;;;;6.45;1.52;;;;;;;20.77;68.59;97625.69;5092544;28;20060;-44
2023/09/21 03:38:13;;;;;;;4.25;2.05;;;;;;;20.86;69.86;97623.13;5092438;28;20020;-44
2023/09/21 03:40:43;;;;;;;13.70;2.85;;;;;;;20.87;69.00;97612.16;5092510;28;20032;-44
2023/09/21 03:43:10;;;;;;;6.45;1.58;;;;;;;20.92;69.48;97609.41;5092270;28;20529;-44
2023/09/21 03:45:38;;;;;;;11.95;1.88;;;;;;;20.97;68.19;97608.53;5093532;28;20020;-44
2023/09/21 03:48:04;;;;;;;13.63;1.75;;;;;;;20.83;68.01;97602.38;5093826;28;20103;-44
2023/09/21 03:50:31;;;;;;;4.93;1.33;;;;;;;20.73;68.39;97608.69;5092158;28;20027;-44
2023/09/21 03:52:59;;;;;;;5.20;1.35;;;;;;;20.72;68.30;97607.09;5093450;28;20020;-44
2023/09/21 03:55:25;;;;;;;6.97;1.90;;;;;;;20.71;68.89;97605.53;5093378;28;20047;-44
2023/09/21 03:57:51;;;;;;;19.00;2.80;;;;;;;20.88;69.05;97608.41;5093366;28;20028;-44
2023/09/21 04:00:29;;;;;;;9.50;1.75;;;;;;;21.25;68.45;97611.19;5091962;28;20027;-44
2023/09/21 04:02:59;;;;;;;6.15;1.50;;;;;;;21.53;67.10;97612.00;5092760;28;20051;-44
2023/09/21 04:05:31;;;;;;;4.50;1.65;;;;;;;21.49;66.21;97603.84;5091735;28;20473;-44
2023/09/21 04:07:57;;;;;;;10.55;2.08;;;;;;;21.37;66.28;97608.03;5093456;28;20035;-44
2023/09/21 04:10:23;;;;;;;5.65;1.30;;;;;;;21.27;66.23;97612.50;5091783;28;20112;-44
2023/09/21 04:12:55;;;;;;;9.68;1.90;;;;;;;21.19;66.66;97607.06;5093016;28;20474;-44
2023/09/21 04:15:30;;;;;;;7.03;1.80;;;;;;;21.26;67.04;97604.78;5092896;28;20080;-44
2023/09/21 04:18:01;;;;;;;5.05;1.20;;;;;;;21.49;67.22;97598.50;5091721;28;20502;-44
2023/09/21 04:20:31;;;;;;;7.35;1.77;;;;;;;21.64;65.69;97593.91;5092730;28;20020;-44
2023/09/21 04:23:00;;;;;;;6.13;1.83;;;;;;;21.70;65.81;97592.72;5092832;28;20027;-44
2023/09/21 04:25:25;;;;;;;9.95;2.53;;;;;;;21.79;65.63;97596.25;5092702;28;20551;-44
2023/09/21 04:27:53;;;;;;;8.63;1.90;;;;;;;22.00;65.13;97599.28;5092782;28;20012;-44
2023/09/21 04:30:22;;;;;;;9.07;2.33;;;;;;;22.19;64.42;97603.66;5092969;28;20028;-44
2023/09/21 04:32:49;;;;;;;6.05;1.10;;;;;;;22.35;64.03;97604.91;5092736;28;20016;-44
2023/09/21 04:35:18;;;;;;;5.35;1.83;;;;;;;22.45;63.07;97603.88;5092555;28;20031;-44
2023/09/21 04:37:47;;;;;;;10.40;1.88;;;;;;;22.42;63.02;97602.63;5092640;28;20062;-44
2023/09/21 04:40:14;;;;;;;2.70;1.20;;;;;;;22.29;62.58;97590.88;5091209;28;20024;-44
2023/09/21 04:42:41;;;;;;;4.57;1.50;;;;;;;21.85;63.36;97584.38;5091197;28;20028;-44
2023/09/21 04:45:09;;;;;;;5.40;1.30;;;;;;;21.62;63.99;97599.56;5091051;28;20383;-44
2023/09/21 04:47:40;;;;;;;5.90;1.98;;;;;;;21.31;65.47;97588.69;5091144;28;20077;-44
2023/09/21 04:50:09;;;;;;;7.65;1.90;;;;;;;21.12;65.59;97589.56;5092382;28;20039;-44
2023/09/21 04:52:35;;;;;;;7.75;1.30;;;;;;;20.99;66.20;97593.03;5091053;28;20016;-44
2023/09/21 04:55:03;;;;;;;9.35;2.03;;;;;;;20.98;67.04;97586.09;5092230;28;20043;-44
2023/09/21 04:57:30;;;;;;;5.10;1.38;;;;;;;21.10;66.68;97580.28;5092234;28;20035;-44
2023/09/21 05:00:00;;;;;;;3.95;1.38;;;;;;;20.88;66.44;97579.06;5092121;28;20016;-44
2023/09/21 05:02:26;;;;;;;4.55;1.73;;;;;;;20.53;67.57;97575.13;5090910;28;20020;-44
2023/09/21 05:04:52;;;;;;;6.63;1.38;;;;;;;20.34;68.77;97569.84;5090486;28;20047;-44
2023/09/21 05:07:18;;;;;;;3.55;1.20;;;;;;;20.29;68.96;97568.06;5092154;28;20024;-44
2023/09/21 05:09:45;;;;;;;5.20;2.25;;;;;;;20.13;69.50;97564.03;5090787;28;20444;-44
2023/09/21 05:12:16;;;;;;;9.68;1.52;;;;;;;20.08;70.03;97558.78;5092263;28;20020;-44
2023/09/21 05:14:42;;;;;;;9.00;1.63;;;;;;;20.07;70.68;97560.66;5092089;28;20020;-44
2023/09/21 05:17:07;;;;;;;4.35;1.50;;;;;;;20.21;70.31;97555.41;5091989;28;20551;-44
2023/09/21 05:19:33;;;;;;;9.30;2.00;;;;;;;20.24;70.03;97557.50;5092023;28;20051;-44
2023/09/21 05:22:00;;;;;;;4.40;1.40;;;;;;;20.30;70.08;97555.50;5091867;28;20028;-44
2023/09/21 05:24:26;;;;;;;4.70;1.83;;;;;;;20.40;69.79;97554.56;5073760;28;20020;-44
2023/09/21 05:26:55;;;;;;;4.88;1.77;;;;;;;20.46;69.37;97548.06;5090093;28;20115;-44
2023/09/21 05:29:21;;;;;;;3.08;1.20;;;;;;;20.44;68.59;97543.00;5090632;28;20103;-44
2023/09/21 05:31:48;;;;;;;6.20;1.83;;;;;;;20.37;68.92;97544.50;5091806;28;20036;-44
2023/09/21 05:34:14;;;;;;;9.45;2.75;;;;;;;20.37;68.79;97549.81;5090502;28;20497;-44
2023/09/21 05:36:40;;;;;;;7.53;1.95;;;;;;;20.38;69.56;97548.72;5090558;28;20056;-44
2023/09/21 05:39:08;;;;;;;7.45;1.83;;;;;;;20.67;68.22;97548.53;5090787;28;20030;-44
2023/09/21 05:41:34;;;;;;;9.75;1.73;;;;;;;20.81;67.69;97556.56;5091724;28;20020;-43
2023/09/21 05:44:00;;;;;;;15.95;2.47;;;;;;;20.71;67.38;97558.31;5091657;28;20133;-44
2023/09/21 05:46:26;;;;;;;6.28;2.75;;;;;;;20.62;68.27;97554.72;5090475;28;20078;-44
2023/09/21 05:48:51;;;;;;;5.85;1.92;;;;;;;20.65;68.77;97564.81;5090421;28;20058;-44
2023/09/21 05:51:17;;;;;;;10.18;3.10;;;;;;;20.63;68.64;97555.53;5091660;28;20553;-44
2023/09/21 05:53:43;;;;;;;17.63;5.78;;;;;;;20.66;68.43;97549.59;5091711;28;20028;-44
2023/09/21 05:56:11;;;;;;;13.45;2.63;;;;;;;20.72;68.17;97541.22;5090314;28;20071;-44
2023/09/21 05:58:37;;;;;;;8.50;3.20;;;;;;;20.63;67.94;97542.22;5091570;28;20099;-44
2023/09/21 06:01:03;;;;;;;9.05;1.83;;;;;;;20.56;67.93;97539.88;5091574;28;20055;-44
2023/09/21 06:03:29;;;;;;;13.65;3.30;;;;;;;20.58;68.63;97539.59;5091258;28;20024;-44
2023/09/21 06:05:55;;;;;;;10.60;2.80;;;;;;;20.68;67.11;97526.13;5091369;28;20058;-44
2023/09/21 06:08:21;;;;;;;10.80;2.92;;;;;;;20.62;67.35;97535.28;5091488;28;20024;-44
2023/09/21 06:10:47;;;;;;;9.18;1.83;;;;;;;20.61;67.29;97542.50;5091511;28;20020;-44
2023/09/21 06:13:13;;;;;;;6.05;1.50;;;;;;;20.63;67.03;97536.88;5091444;28;20378;-43
2023/09/21 06:15:48;;;;;;;3.40;1.10;;;;;;;20.60;67.11;97532.13;5091438;28;20069;-44
2023/09/21 06:18:17;;;;;;;13.18;2.25;;;;;;;20.45;67.58;97533.94;5091470;28;20107;-44
2023/09/21 06:20:43;;;;;;;9.38;1.77;;;;;;;20.37;68.52;97531.97;5091349;28;20486;-44
2023/09/21 06:23:09;;;;;;;3.42;0.98;;;;;;;20.48;67.32;97525.38;5090349;28;20036;-44
2023/09/21 06:25:36;;;;;;;10.65;1.90;;;;;;;20.78;67.63;97530.47;5091258;28;20450;-44
2023/09/21 06:28:03;;;;;;;9.57;1.98;;;;;;;21.67;64.58;97532.72;5091353;28;20125;-44
2023/09/21 06:30:28;;;;;;;4.90;1.23;;;;;;;22.40;61.50;97526.50;5091308;28;20016;-44
2023/09/21 06:32:55;;;;;;;5.15;1.45;;;;;;;22.38;61.11;97529.47;5089984;28;20024;-44
2023/09/21 06:35:27;;;;;;;5.20;2.15;;;;;;;22.23;61.32;97532.47;5091276;28;20502;-44
2023/09/21 06:37:55;;;;;;;5.95;1.60;;;;;;;22.12;61.56;97535.41;5089924;28;20028;-44
2023/09/21 06:40:23;;;;;;;4.75;1.33;;;;;;;22.31;61.25;97529.88;5092122;28;20031;-44
2023/09/21 06:42:50;;;;;;;19.55;2.58;;;;;;;22.49;60.97;97535.34;5094859;28;20081;-44
2023/09/21 06:45:16;;;;;;;4.80;1.02;;;;;;;22.57;59.45;97537.25;5094961;28;20035;-44
2023/09/21 06:47:42;;;;;;;4.03;1.27;;;;;;;22.74;59.76;97523.19;5093522;28;20020;-44
2023/09/21 06:50:14;;;;;;;7.35;1.50;;;;;;;23.58;56.74;97504.53;5094739;28;20020;-44
2023/09/21 06:52:40;;;;;;;3.38;1.20;;;;;;;24.08;54.87;97496.00;5094699;28;20060;-44
2023/09/21 06:55:06;;;;;;;3.45;1.02;;;;;;;24.26;54.21;97497.56;5093232;28;20028;-44
2023/09/21 06:57:34;;;;;;;4.20;1.35;;;;;;;24.15;54.04;97499.00;5094571;28;20024;-44
2023/09/21 07:00:09;;;;;;;8.95;1.70;;;;;;;23.70;54.89;97494.78;5094388;28;20517;-44
2023/09/21 07:02:35;;;;;;;;;;;;;;;23.63;56.33;97488.31;5094961;28;20064;-44
2023/09/21 07:05:01;;;;;;;2.88;1.00;;;;;;;23.93;54.90;97491.94;5092937;28;20006;-44
2023/09/21 07:07:26;;;;;;;3.63;1.15;;;;;;;23.69;54.77;97487.81;5076385;28;20091;-44
2023/09/21 07:09:54;;;;;;;2.75;0.88;;;;;;;23.26;55.94;97503.84;5093042;28;20051;-44
2023/09/21 07:12:22;;;;;;;9.82;2.40;;;;;;;22.87;57.21;97492.09;5094275;28;20016;-44
2023/09/21 07:14:49;;;;;;;4.72;1.00;;;;;;;22.68;58.09;97490.44;5094553;28;20036;-44
2023/09/21 07:17:16;;;;;;;4.05;1.40;;;;;;;22.51;58.18;97488.47;5094165;28;20023;-44
2023/09/21 07:19:41;;;;;;;6.60;1.20;;;;;;;22.43;59.36;97489.22;5094270;28;20024;-44
2023/09/21 07:22:07;;;;;;;8.48;2.50;;;;;;;22.38;59.24;97502.72;5094093;28;20016;-44
2023/09/21 07:24:33;;;;;;;6.22;1.88;;;;;;;22.57;59.53;97496.38;5094009;28;20028;-44
2023/09/21 07:26:58;;;;;;;10.25;1.70;;;;;;;22.78;59.03;97497.41;5093943;28;20028;-44
2023/09/21 07:29:24;;;;;;;5.88;1.05;;;;;;;22.95;57.96;97507.38;5092659;28;20508;-44
2023/09/21 07:31:50;;;;;;;6.65;1.48;;;;;;;22.88;58.02;97505.16;5093878;28;20450;-44
2023/09/21 07:34:16;;;;;;;9.73;6.60;;;;;;;22.76;59.38;97507.63;5092561;28;20057;-44
2023/09/21 07:36:46;;;;;;;7.35;3.53;;;;;;;22.80;58.78;97513.94;5093751;28;20016;-44
2023/09/21 07:39:16;;;;;;;4.72;2.00;;;;;;;22.81;58.84;97517.41;5093660;28;20398;-44
2023/09/21 07:41:42;;;;;;;6.63;2.90;;;;;;;22.71;57.98;97513.88;5093705;28;20046;-44
2023/09/21 07:44:08;;;;;;;4.55;2.80;;;;;;;22.48;58.91;97505.13;5093577;28;20028;-44
2023/09/21 07:46:37;;;;;;;4.05;1.42;;;;;;;22.40;59.21;97507.78;5093546;28;20016;-44
2023/09/21 07:49:06;;;;;;;590.13;448.48;;;;;;;22.28;59.58;97516.34;5093537;28;20470;-44
2023/09/21 07:51:36;;;;;;;201.50;147.77;;;;;;;22.26;59.87;97516.66;5093012;28;20516;-44
2023/09/21 07:54:02;;;;;;;27.00;19.30;;;;;;;22.20;60.10;97514.41;5093399;28;20089;-44
2023/09/21 07:56:31;;;;;;;19.67;8.40;;;;;;;22.06;60.60;97501.09;5093645;28;20024;-44
2023/09/21 07:58:57;;;;;;;13.02;3.30;;;;;;;22.00;60.91;97496.97;5093397;28;20116;-44
2023/09/21 08:01:26;;;;;;;7.13;2.30;;;;;;;21.93;60.92;97492.03;5093303;28;20103;-43
2023/09/21 08:03:52;;;;;;;9.57;2.63;;;;;;;22.03;61.48;97486.44;5093040;28;20059;-44
2023/09/21 08:06:19;;;;;;;4.13;1.38;;;;;;;22.28;61.08;97498.44;5093491;28;20028;-44
2023/09/21 08:08:46;;;;;;;4.25;1.20;;;;;;;22.35;59.81;97495.31;5093168;28;20028;-44
2023/09/21 08:11:12;;;;;;;14.98;4.03;;;;;;;22.26;60.69;97494.50;5093354;28;20168;-44
2023/09/21 08:13:39;;;;;;;20.63;4.43;;;;;;;22.43;61.01;97491.91;5091789;28;20020;-44
2023/09/21 08:16:08;;;;;;;3.53;1.10;;;;;;;22.49;59.62;97495.22;5092912;28;20028;-44
2023/09/21 08:18:36;;;;;;;7.90;1.80;;;;;;;22.48;59.69;97493.66;5092922;28;20028;-44
2023/09/21 08:21:05;;;;;;;42.28;5.70;;;;;;;22.67;60.26;97493.41;5091663;28;20444;-44
2023/09/21 08:23:32;;;;;;;7.32;1.83;;;;;;;23.11;58.96;97492.47;5092931;28;20077;-44
2023/09/21 08:25:58;;;;;;;4.25;1.48;;;;;;;23.39;57.95;97488.75;5092739;28;20023;-44
2023/09/21 08:28:25;;;;;;;7.60;2.05;;;;;;;23.49;57.42;97489.22;5092759;28;20080;-44
2023/09/21 08:30:52;;;;;;;8.60;1.95;;;;;;;23.60;56.93;97492.38;5092662;28;20024;-44
2023/09/21 08:33:18;;;;;;;7.13;1.50;;;;;;;23.65;56.75;97500.28;5091457;28;20032;-44
2023/09/21 08:35:43;;;;;;;9.38;2.42;;;;;;;23.88;56.30;97506.28;5092700;28;20016;-44
2023/09/21 08:38:10;;;;;;;11.35;2.00;;;;;;;24.26;55.31;97500.22;5092531;28;20101;-44
2023/09/21 08:40:38;;;;;;;6.75;1.67;;;;;;;25.02;53.32;97489.88;5092588;28;20016;-44
2023/09/21 08:43:04;;;;;;;8.48;1.27;;;;;;;25.39;50.64;97484.78;5091332;28;20128;-44
2023/09/21 08:45:33;;;;;;;2.05;0.82;;;;;;;25.65;48.53;97479.97;5092278;28;20538;-45
2023/09/21 08:48:01;;;;;;;6.88;1.02;;;;;;;25.65;48.36;97488.03;5091073;28;20024;-44
2023/09/21 08:50:27;;;;;;;3.58;0.90;;;;;;;25.39;48.09;97482.88;5091290;28;20111;-44
2023/09/21 08:52:54;;;;;;;2.03;0.80;;;;;;;24.96;49.15;97469.72;5091034;28;20096;-45
2023/09/21 08:55:25;;;;;;;4.82;1.30;;;;;;;24.44;50.72;97474.16;5092335;28;20042;-44
2023/09/21 08:57:53;;;;;;;4.32;0.75;;;;;;;24.11;52.13;97482.00;5092341;28;20032;-44
2023/09/21 09:00:26;;;;;;;5.80;1.10;;;;;;;23.92;52.89;97480.44;5091118;28;20527;-44
2023/09/21 09:02:51;;;;;;;4.18;0.85;;;;;;;23.74;53.64;97468.13;5090519;28;20036;-44
2023/09/21 09:05:18;;;;;;;4.32;1.05;;;;;;;23.74;53.67;97460.06;5091989;28;20413;-44
2023/09/21 09:07:43;;;;;;;3.35;1.10;;;;;;;23.95;53.89;97460.25;5092069;28;20027;-44
2023/09/21 09:10:13;;;;;;;3.35;0.93;;;;;;;24.23;52.93;97465.25;5092116;28;20024;-44
2023/09/21 09:12:40;;;;;;;2.88;0.80;;;;;;;24.68;51.99;97454.84;5092077;28;20024;-44
2023/09/21 09:15:09;;;;;;;2.70;0.75;;;;;;;24.85;50.59;97472.75;5092088;28;20030;-44
2023/09/21 09:17:36;;;;;;;2.90;0.80;;;;;;;24.76;51.13;97474.69;5092048;28;20556;-44
2023/09/21 09:20:05;;;;;;;6.18;1.27;;;;;;;25.59;49.65;97467.88;5092268;28;20457;-44
2023/09/21 09:22:34;;;;;;;10.45;1.27;;;;;;;26.26;47.60;97459.84;5092142;28;20039;-45
2023/09/21 09:25:11;;;;;;;8.73;1.08;;;;;;;26.46;46.44;97456.28;5091768;28;20490;-44
2023/09/21 09:27:38;;;;;;;148.88;63.50;;;;;;;26.29;47.30;97446.50;5091893;28;20103;-45
2023/09/21 09:30:08;;;;;;;18.27;3.67;;;;;;;27.30;46.38;97446.97;5091765;28;20051;-45
2023/09/21 09:32:41;;;;;;;8.88;2.00;;;;;;;28.81;42.75;97432.78;5091818;28;20039;-45
2023/09/21 09:35:12;;;;;;;8.27;1.35;;;;;;;29.47;40.34;97441.94;5091755;28;20546;-45
2023/09/21 09:37:42;;;;;;;10.00;1.52;;;;;;;29.78;39.96;97434.84;5091743;28;20378;-45
2023/09/21 09:40:09;;;;;;;4.57;1.13;;;;;;;30.41;38.34;97430.94;5091652;28;20107;-46
2023/09/21 09:42:40;;;;;;;14.40;3.25;;;;;;;30.86;37.91;97431.22;5091424;28;20051;-45
2023/09/21 09:45:11;;;;;;;5.45;1.08;;;;;;;31.69;35.61;97435.03;5091613;28;20043;-45
2023/09/21 09:47:39;;;;;;;13.90;4.22;;;;;;;32.64;35.68;97411.91;5091773;28;20088;-46
2023/09/21 09:50:09;;;;;;;5.63;1.30;;;;;;;34.52;32.59;97406.66;5091728;28;20031;-46
2023/09/21 09:52:43;;;;;;;2.40;1.10;;;;;;;35.28;29.79;97392.91;5090422;28;20035;-45
2023/09/21 09:55:12;;;;;;;4.15;0.75;;;;;;;35.08;29.63;97400.75;5090392;28;20477;-46
2023/09/21 09:57:41;;;;;;;4.20;1.75;;;;;;;34.49;30.23;97406.66;5091539;28;20016;-46
2023/09/21 10:00:15;;;;;;;4.22;0.95;;;;;;;33.80;30.52;97405.84;5091501;28;20524;-46
2023/09/21 10:02:44;;;;;;;4.20;1.27;;;;;;;31.79;32.98;97405.31;5091863;28;20032;-46
2023/09/21 10:05:12;;;;;;;6.70;1.20;;;;;;;30.25;35.88;97403.19;5091128;28;20081;-45
2023/09/21 10:07:38;;;;;;;11.10;2.38;;;;;;;29.53;37.79;97401.88;5091489;28;20024;-46
2023/09/21 10:10:08;;;;;;;4.15;1.00;;;;;;;29.27;38.24;97408.72;5091456;28;20054;-46
2023/09/21 10:12:34;;;;;;;2.70;1.40;;;;;;;29.46;38.68;97421.47;5091729;28;20112;-45
2023/09/21 10:15:03;;;;;;;7.95;2.17;;;;;;;30.73;37.19;97419.06;5094892;28;20021;-45
2023/09/21 10:17:30;;;;;;;7.65;1.45;;;;;;;31.76;35.04;97397.91;5093952;28;20081;-46
2023/09/21 10:20:15;;;;;;;4.78;0.80;;;;;;;32.16;34.93;97401.81;5095239;28;20020;-45
2023/09/21 10:22:44;;;;;;;6.32;2.17;;;;;;;32.34;34.45;97396.50;5095176;28;20035;-45
2023/09/21 10:25:15;;;;;;;2.45;0.90;;;;;;;32.12;34.50;97406.41;5095035;28;20477;-46
2023/09/21 10:27:46;;;;;;;2.47;0.90;;;;;;;31.49;34.53;97401.88;5095051;28;20036;-45
2023/09/21 10:30:18;;;;;;;4.97;1.10;;;;;;;31.14;35.45;97389.44;5095018;28;20084;-45
2023/09/21 10:32:48;;;;;;;3.53;0.82;;;;;;;31.09;35.77;97390.53;5094943;28;20560;-46
2023/09/21 10:35:44;;;;;;;3.38;0.82;;;;;;;31.01;35.94;97388.91;5094970;28;20482;-45
2023/09/21 10:38:15;;;;;;;5.32;1.10;;;;;;;30.55;36.50;97383.56;5094986;28;20043;-45
2023/09/21 10:40:41;;;;;;;5.22;1.48;;;;;;;29.85;37.27;97385.50;5094798;28;20115;-45
2023/09/21 10:43:37;;;;;;;12.98;1.38;;;;;;;29.14;38.78;97374.06;5094845;28;20099;-46
2023/09/21 10:46:21;;;;;;;3.90;0.85;;;;;;;28.91;38.56;97377.44;5094665;28;20024;-45
2023/09/21 10:48:49;;;;;;;6.90;0.90;;;;;;;28.43;39.92;97366.72;5095051;28;20054;-45
2023/09/21 10:51:15;;;;;;;4.47;1.35;;;;;;;28.38;39.89;97358.91;5094616;28;20394;-45
2023/09/21 10:53:41;;;;;;;5.80;0.98;;;;;;;28.75;39.71;97352.41;5094609;28;20051;-46
2023/09/21 10:56:07;;;;;;;3.35;0.80;;;;;;;29.09;39.30;97350.81;5094636;28;20042;-45
2023/09/21 10:58:33;;;;;;;3.65;1.05;;;;;;;29.33;38.34;97343.56;5094552;28;20028;-45
2023/09/21 11:01:03;;;;;;;7.00;1.25;;;;;;;30.27;37.45;97335.94;5094485;28;20016;-46
2023/09/21 11:03:29;;;;;;;4.38;0.90;;;;;;;30.81;35.95;97320.47;5094094;28;20048;-45
2023/09/21 11:05:56;;;;;;;4.47;1.00;;;;;;;30.40;36.21;97304.84;5093013;28;20421;-46
2023/09/21 11:08:24;;;;;;;1.98;0.93;;;;;;;30.20;35.97;97312.28;5094413;28;20024;-45
2023/09/21 11:10:50;;;;;;;2.80;0.60;;;;;;;29.52;36.91;97303.00;5094302;28;20020;-45
2023/09/21 11:13:17;;;;;;;3.53;1.10;;;;;;;29.75;36.55;97289.50;5094228;28;20030;-45
2023/09/21 11:15:44;;;;;;;2.30;1.10;;;;;;;30.85;35.81;97305.81;5094100;28;20024;-45
2023/09/21 11:18:10;;;;;;;3.20;1.00;;;;;;;31.30;34.22;97291.66;5094157;28;20028;-46
2023/09/21 11:20:36;;;;;;;3.83;1.13;;;;;;;31.01;34.83;97285.94;5094173;28;20039;-46
2023/09/21 11:23:03;;;;;;;4.45;1.33;;;;;;;30.46;35.83;97272.81;5094045;28;20017;-46
2023/09/21 11:25:29;;;;;;;5.10;1.30;;;;;;;30.17;36.15;97249.97;5093371;28;20032;-45
2023/09/21 11:27:57;;;;;;;2.63;0.93;;;;;;;29.88;35.59;97273.88;5092638;28;20097;-45
2023/09/21 11:30:22;;;;;;;3.03;0.80;;;;;;;29.37;37.18;97266.81;5092854;28;20496;-45
2023/09/21 11:32:53;;;;;;;3.58;0.90;;;;;;;28.74;37.46;97259.81;5093848;28;20024;-46
2023/09/21 11:35:21;;;;;;;6.90;1.20;;;;;;;28.30;37.78;97249.25;5093812;28;20032;-45
2023/09/21 11:37:49;;;;;;;5.55;1.25;;;;;;;27.93;39.31;97248.78;5093737;28;20063;-45